Jhang Sadar, Pakistan
Current Conditions -  °F | °C
As of 7:54 PM on Saturday 20 Dec 2014 (Local Time) from OPMT Reporting Station
Haze Haze  
Wind Chill: 46°   Ceiling: Unl
Heat Index: 46°   Visibility: 0.5mi
Dew Point: 43°   Wind: 0mph
Humidity: 87%   Direction: NA
Pressure: 30.06"   Gusts: NA
Location:  31.27°N, 72.32°E
Report Text: OPMT 201454Z 00000KT 0800 BR FEW120 08/06 Q1018 NOSIG
Loading
Personal Weather Stations






























Interactive Weather Map New forecast layout! Learn more

10-Day Weather Forecast

Advertisements
Track Severe Weather on mobile